Time;durP1;ratioP1;P1;durP2;ratioP2;P2;SDS_P1;SDS_P2;PMS_P1;PMS_P2;Temp;Humidity;BMP_temperature;BMP_pressure;BME280_temperature;BME280_humidity;BME280_pressure;Samples;Min_cycle;Max_cycle;Signal;HPM_P1;HPM_P2
2021/03/06 00:01:27;;;;;;;63.17;29.63;;;;;;;-2.54;83.26;99173.98;1785157;80;21118;-72
2021/03/06 00:03:53;;;;;;;93.33;40.55;;;;;;;-2.51;82.23;99172.30;1785196;79;21246;-72
2021/03/06 00:06:19;;;;;;;86.10;40.45;;;;;;;-2.57;82.10;99168.98;1785092;80;21130;-72
2021/03/06 00:08:45;;;;;;;77.17;37.45;;;;;;;-2.53;82.94;99173.48;1785210;79;21602;-72
2021/03/06 00:11:11;;;;;;;91.90;40.25;;;;;;;-2.46;82.92;99176.63;1785176;80;21141;-72
2021/03/06 00:13:37;;;;;;;74.05;36.58;;;;;;;-2.40;82.79;99179.08;1785183;79;21122;-72
2021/03/06 00:16:05;;;;;;;79.35;35.00;;;;;;;-2.39;82.62;99178.12;1785127;80;21292;-72
2021/03/06 00:18:31;;;;;;;67.47;32.73;;;;;;;-2.40;82.15;99180.41;1785041;79;21114;-72
2021/03/06 00:20:57;;;;;;;71.40;33.90;;;;;;;-2.51;82.64;99182.92;1785141;80;21150;-72
2021/03/06 00:23:23;;;;;;;85.28;37.00;;;;;;;-2.50;81.95;99188.56;1785213;79;21122;-72
2021/03/06 00:25:49;;;;;;;88.55;37.60;;;;;;;-2.59;81.40;99182.93;1785135;80;21138;-72
2021/03/06 00:28:15;;;;;;;93.55;41.35;;;;;;;-2.74;81.85;99184.09;1785229;80;22234;-72
2021/03/06 00:30:42;;;;;;;110.63;50.20;;;;;;;-2.98;83.20;99190.24;1785030;79;21097;-72
2021/03/06 00:33:08;;;;;;;139.25;60.50;;;;;;;-2.95;82.93;99193.88;1785219;80;21114;-72
2021/03/06 00:35:34;;;;;;;97.97;43.38;;;;;;;-2.91;82.31;99189.89;1785089;79;21066;-72
2021/03/06 00:38:00;;;;;;;95.35;43.73;;;;;;;-2.91;82.12;99188.56;1756689;80;21116;-72
2021/03/06 00:40:27;;;;;;;93.97;45.17;;;;;;;-2.95;81.72;99185.09;1781382;79;21468;-72
2021/03/06 00:42:53;;;;;;;146.98;65.03;;;;;;;-3.01;81.75;99187.91;1780754;80;21103;-72
2021/03/06 00:45:19;;;;;;;113.90;50.10;;;;;;;-3.10;83.57;99190.22;1780730;79;21063;-72
2021/03/06 00:47:45;;;;;;;101.12;47.03;;;;;;;-3.08;81.97;99182.92;1780709;80;21123;-72
2021/03/06 00:50:14;;;;;;;104.17;44.27;;;;;;;-3.15;81.71;99179.29;1780739;79;21114;-72
2021/03/06 00:52:40;;;;;;;105.15;45.28;;;;;;;-3.16;81.73;99173.16;1780875;80;21476;-72
2021/03/06 00:55:08;;;;;;;115.80;55.70;;;;;;;-3.22;81.80;99183.08;1780581;79;21038;-72
2021/03/06 00:57:34;;;;;;;112.15;48.95;;;;;;;-3.24;82.84;99182.42;1780764;80;21500;-72
2021/03/06 01:00:01;;;;;;;103.62;47.70;;;;;;;-3.20;82.53;99181.09;1780638;79;21112;-72
2021/03/06 01:02:27;;;;;;;90.32;42.83;;;;;;;-3.22;81.86;99179.11;1762219;81;21496;-72
2021/03/06 01:04:53;;;;;;;99.52;48.30;;;;;;;-3.34;81.63;99171.11;1749869;81;21205;-72
2021/03/06 01:07:19;;;;;;;98.65;51.23;;;;;;;-3.43;83.01;99175.56;1780623;80;21114;-72
2021/03/06 01:09:45;;;;;;;117.47;58.10;;;;;;;-3.47;83.12;99184.85;1780716;79;21123;-72
2021/03/06 01:12:11;;;;;;;97.57;48.38;;;;;;;-3.47;83.17;99186.17;1780810;80;21139;-72
2021/03/06 01:14:37;;;;;;;103.78;43.42;;;;;;;-3.47;82.09;99184.85;1780655;79;21039;-72
2021/03/06 01:17:04;;;;;;;101.95;44.27;;;;;;;-3.52;82.58;99188.47;1731906;82;22266;-72
2021/03/06 01:19:30;;;;;;;101.78;46.02;;;;;;;-3.49;83.23;99180.71;1780810;79;21094;-72
2021/03/06 01:21:56;;;;;;;95.87;46.48;;;;;;;-3.49;82.39;99190.81;1762275;81;21148;-72
2021/03/06 01:24:22;;;;;;;104.43;50.73;;;;;;;-3.49;82.88;99195.29;1780811;79;21464;-72
2021/03/06 01:26:49;;;;;;;102.72;48.10;;;;;;;-3.44;82.91;99200.91;1732022;82;21139;-72
2021/03/06 01:29:16;;;;;;;105.20;52.50;;;;;;;-3.37;82.98;99198.45;1780743;79;21249;-71
2021/03/06 01:31:42;;;;;;;102.58;48.65;;;;;;;-3.33;82.42;99201.95;1731980;82;21536;-72
2021/03/06 01:34:09;;;;;;;100.82;49.80;;;;;;;-3.33;82.24;99204.61;1780804;79;21055;-72
2021/03/06 01:36:35;;;;;;;109.22;47.30;;;;;;;-3.37;82.13;99212.54;1731986;82;21223;-72
2021/03/06 01:39:01;;;;;;;110.85;51.98;;;;;;;-3.42;82.92;99194.95;1781164;78;21523;-72
2021/03/06 01:41:28;;;;;;;112.95;50.20;;;;;;;-3.38;82.19;99210.88;1785283;80;21191;-72
2021/03/06 01:43:54;;;;;;;99.15;48.63;;;;;;;-3.46;82.90;99209.53;1785297;79;21435;-72
2021/03/06 01:46:20;;;;;;;117.22;53.20;;;;;;;-3.43;83.04;99212.67;1785307;80;21126;-72
2021/03/06 01:48:46;;;;;;;89.97;44.75;;;;;;;-3.44;82.14;99215.49;1785315;79;21212;-72
2021/03/06 01:51:12;;;;;;;96.72;46.63;;;;;;;-3.53;82.68;99212.48;1785304;80;21072;-72
2021/03/06 01:53:38;;;;;;;88.78;43.48;;;;;;;-3.48;82.29;99210.20;1785328;79;22030;-72
2021/03/06 01:56:05;;;;;;;93.20;45.45;;;;;;;-3.54;81.86;99205.03;1785153;80;21078;-72
2021/03/06 01:58:31;;;;;;;86.02;40.20;;;;;;;-3.58;81.75;99210.33;1785202;79;21134;-72
2021/03/06 02:00:57;;;;;;;90.92;40.83;;;;;;;-3.70;82.72;99211.09;1785253;80;21039;-72
2021/03/06 02:03:23;;;;;;;80.50;37.30;;;;;;;-3.71;82.29;99212.09;1785257;79;21546;-72
2021/03/06 02:05:49;;;;;;;80.87;35.80;;;;;;;-3.72;81.81;99210.44;1785322;80;21969;-72
2021/03/06 02:08:15;;;;;;;76.65;37.08;;;;;;;-3.80;81.57;99209.57;1785176;80;21113;-71
2021/03/06 02:10:43;;;;;;;76.85;37.13;;;;;;;-3.85;82.28;99214.50;1785187;79;21134;-72
2021/03/06 02:13:32;;;;;;;82.22;34.78;;;;;;;-3.86;82.86;99210.20;1785245;80;21054;-72
2021/03/06 02:16:12;;;;;;;88.00;40.58;;;;;;;-3.89;81.71;99198.11;1784833;80;21435;-71
2021/03/06 02:18:55;;;;;;;78.20;39.83;;;;;;;-3.98;82.84;99207.84;1784790;79;21193;-71
2021/03/06 02:21:44;;;;;;;73.42;35.55;;;;;;;-4.06;82.28;99205.64;1756570;80;21165;-71
2021/03/06 02:24:40;;;;;;;85.17;37.40;;;;;;;-4.06;81.74;99205.64;1785330;79;21043;-71
2021/03/06 02:27:33;;;;;;;80.42;38.05;;;;;;;-4.13;82.24;99207.25;1700951;83;21215;-71
2021/03/06 02:30:10;;;;;;;86.08;36.28;;;;;;;-4.24;82.22;99201.74;1779683;79;21011;-72
2021/03/06 02:32:43;;;;;;;84.00;38.83;;;;;;;-4.23;81.47;99205.22;1785293;80;21192;-71
2021/03/06 02:35:15;;;;;;;81.63;38.00;;;;;;;-4.29;81.94;99200.05;1785234;79;21055;-72
2021/03/06 02:37:54;;;;;;;73.92;32.98;;;;;;;-4.36;82.38;99205.16;1785201;80;21114;-71
2021/03/06 02:40:21;;;;;;;81.57;39.05;;;;;;;-4.32;81.69;99206.48;1759887;80;21475;-71
2021/03/06 02:42:47;;;;;;;82.47;41.00;;;;;;;-4.41;81.57;99207.42;1788839;80;21102;-71
2021/03/06 02:45:13;;;;;;;81.95;36.75;;;;;;;-4.49;81.83;99211.34;1788860;78;22277;-71
2021/03/06 02:47:39;;;;;;;88.10;41.68;;;;;;;-4.47;81.50;99209.85;1788752;80;21097;-71
2021/03/06 02:50:09;;;;;;;85.15;37.08;;;;;;;-4.51;82.41;99216.45;1788860;78;21389;-71
2021/03/06 02:52:35;;;;;;;86.85;39.85;;;;;;;-4.49;81.72;99225.89;1788940;80;21512;-71
2021/03/06 02:55:01;;;;;;;77.35;35.85;;;;;;;-4.47;82.36;99221.27;1788775;78;21150;-71
2021/03/06 02:57:52;;;;;;;93.17;37.75;;;;;;;-4.47;81.70;99221.76;1788755;80;21255;-71
2021/03/06 03:00:35;;;;;;;83.97;37.53;;;;;;;-4.57;81.81;99218.72;1788702;78;21035;-71
2021/03/06 03:03:16;;;;;;;83.07;37.28;;;;;;;-4.57;82.33;99226.66;1788823;80;21086;-71
2021/03/06 03:06:11;;;;;;;71.72;34.88;;;;;;;-4.53;81.83;99227.16;1788780;78;21511;-72
2021/03/06 03:09:03;;;;;;;71.67;30.90;;;;;;;-4.53;81.83;99236.42;1788906;78;21487;-71
2021/03/06 03:11:37;;;;;;;71.87;33.65;;;;;;;-4.49;81.55;99230.34;1788757;80;21186;-71
2021/03/06 03:14:04;;;;;;;78.12;35.63;;;;;;;-4.58;82.01;99245.33;1781041;78;21090;-71
2021/03/06 03:16:36;;;;;;;57.67;30.35;;;;;;;-4.57;81.86;99246.50;1788849;80;21098;-71
2021/03/06 03:19:06;;;;;;;73.07;33.50;;;;;;;-4.49;81.83;99239.61;1788878;78;21138;-71
2021/03/06 03:21:33;;;;;;;66.00;33.38;;;;;;;-4.55;82.69;99249.81;1788407;80;21098;-71
2021/03/06 03:24:06;;;;;;;71.53;34.25;;;;;;;-4.49;82.96;99248.38;1788881;78;21237;-71
2021/03/06 03:26:32;;;;;;;89.42;33.48;;;;;;;-4.36;82.77;99249.28;1788751;80;21495;-71
2021/03/06 03:28:59;;;;;;;76.22;33.15;;;;;;;-4.28;82.14;99250.66;1788847;78;21035;-71
2021/03/06 03:31:26;;;;;;;79.12;39.42;;;;;;;-4.26;82.49;99260.13;1788844;80;21091;-71
2021/03/06 03:33:52;;;;;;;72.80;33.33;;;;;;;-4.26;82.52;99254.84;1788818;78;21043;-70
2021/03/06 03:36:22;;;;;;;71.62;31.68;;;;;;;-4.12;81.97;99260.05;1788753;80;21193;-71
2021/03/06 03:38:48;;;;;;;66.12;33.83;;;;;;;-4.17;81.41;99262.84;1788386;78;21042;-72
2021/03/06 03:41:14;;;;;;;61.85;33.25;;;;;;;-4.18;82.57;99269.95;1780930;78;21511;-72
2021/03/06 03:43:40;;;;;;;64.17;33.35;;;;;;;-4.22;82.35;99271.73;1777971;79;21142;-72
2021/03/06 03:46:07;;;;;;;59.27;28.27;;;;;;;-4.14;81.94;99263.84;1778055;80;21043;-72
2021/03/06 03:48:34;;;;;;;72.92;35.85;;;;;;;-4.18;81.53;99267.30;1777985;79;21177;-72
2021/03/06 03:51:01;;;;;;;69.67;33.00;;;;;;;-4.22;81.92;99261.97;1777892;80;21131;-72
2021/03/06 03:53:28;;;;;;;64.95;33.90;;;;;;;-4.12;82.89;99269.80;1777955;79;21488;-72
2021/03/06 03:55:54;;;;;;;67.85;31.25;;;;;;;-4.02;82.48;99267.88;1778052;80;21114;-72
2021/03/06 03:58:21;;;;;;;62.90;33.08;;;;;;;-4.10;82.08;99267.83;1777949;80;21114;-72
2021/03/06 04:00:47;;;;;;;69.95;32.48;;;;;;;-4.10;81.87;99273.12;1778001;79;21233;-72
2021/03/06 04:03:15;;;;;;;72.30;36.65;;;;;;;-4.12;81.94;99282.55;1778009;80;21135;-72
2021/03/06 04:05:41;;;;;;;70.00;32.93;;;;;;;-4.05;81.99;99276.97;1778125;79;21121;-71
2021/03/06 04:08:07;;;;;;;70.35;32.93;;;;;;;-4.07;81.95;99278.13;1778046;80;21126;-72
2021/03/06 04:10:33;;;;;;;66.45;31.75;;;;;;;-4.08;81.47;99285.23;1777946;79;21507;-72
2021/03/06 04:13:00;;;;;;;65.15;32.88;;;;;;;-4.01;81.35;99277.02;1777957;80;21161;-71
2021/03/06 04:15:26;;;;;;;77.42;33.20;;;;;;;-4.00;81.25;99276.02;1777838;79;21055;-72
2021/03/06 04:17:53;;;;;;;69.65;32.15;;;;;;;-4.02;81.46;99279.79;1777965;80;21099;-72
2021/03/06 04:20:21;;;;;;;65.05;30.02;;;;;;;-3.97;81.90;99280.99;1777921;79;21407;-72
2021/03/06 04:22:47;;;;;;;64.17;31.45;;;;;;;-3.93;81.85;99278.02;1777973;80;21051;-72
2021/03/06 04:25:13;;;;;;;74.50;34.23;;;;;;;-3.85;82.50;99278.07;1777931;79;21295;-72
2021/03/06 04:27:39;;;;;;;71.92;36.90;;;;;;;-3.76;81.66;99274.48;1778003;80;21131;-72
2021/03/06 04:30:08;;;;;;;80.00;40.88;;;;;;;-3.78;82.26;99277.78;1777928;79;21484;-72
2021/03/06 04:32:36;;;;;;;90.50;39.35;;;;;;;-3.76;81.69;99283.75;1777719;80;21086;-71
2021/03/06 04:35:03;;;;;;;72.17;34.30;;;;;;;-3.70;81.77;99292.40;1777919;79;21487;-72
2021/03/06 04:37:29;;;;;;;95.30;44.00;;;;;;;-3.69;81.27;99294.88;1777894;80;21320;-72
2021/03/06 04:39:56;;;;;;;100.27;39.03;;;;;;;-3.83;81.50;99298.14;1778129;79;21424;-72
2021/03/06 04:42:22;;;;;;;86.50;38.28;;;;;;;-3.93;81.15;99298.75;1785150;80;21082;-72
2021/03/06 04:44:48;;;;;;;92.50;42.73;;;;;;;-3.88;81.37;99300.41;1785117;79;21039;-72
2021/03/06 04:47:14;;;;;;;92.90;43.45;;;;;;;-3.90;81.05;99299.75;1785108;80;21063;-72
2021/03/06 04:49:40;;;;;;;90.80;43.17;;;;;;;-3.87;81.88;99301.24;1785117;79;21194;-72
2021/03/06 04:52:06;;;;;;;98.25;45.28;;;;;;;-3.91;81.94;99304.70;1785237;80;21445;-72
2021/03/06 04:54:33;;;;;;;116.65;48.60;;;;;;;-3.90;81.73;99306.36;1785263;79;21106;-72
2021/03/06 04:56:59;;;;;;;78.33;36.30;;;;;;;-3.86;81.42;99313.00;1785247;80;21027;-72
2021/03/06 04:59:25;;;;;;;80.40;36.70;;;;;;;-3.83;81.08;99314.03;1785386;79;21087;-71
2021/03/06 05:01:51;;;;;;;102.10;42.43;;;;;;;-3.90;80.82;99316.96;1785353;80;21200;-72
2021/03/06 05:04:17;;;;;;;107.83;48.02;;;;;;;-3.93;81.57;99315.96;1785213;79;21035;-72
2021/03/06 05:06:45;;;;;;;112.52;52.98;;;;;;;-3.90;82.32;99324.91;1785277;80;21071;-72
2021/03/06 05:09:11;;;;;;;167.85;75.78;;;;;;;-3.83;81.76;99318.50;1785608;79;21524;-72
2021/03/06 05:11:38;;;;;;;150.53;64.70;;;;;;;-3.89;81.80;99323.91;1785292;80;21039;-72
2021/03/06 05:14:04;;;;;;;160.32;68.72;;;;;;;-3.91;81.63;99322.42;1785312;79;22058;-72
2021/03/06 05:16:30;;;;;;;172.72;74.82;;;;;;;-3.94;81.21;99327.52;1785294;80;21676;-72
2021/03/06 05:18:57;;;;;;;132.40;59.67;;;;;;;-3.93;81.58;99325.69;1785221;79;21063;-72
2021/03/06 05:21:23;;;;;;;180.80;66.50;;;;;;;-3.90;81.14;99331.53;1785267;80;21091;-72
2021/03/06 05:23:49;;;;;;;159.20;61.53;;;;;;;-3.95;81.38;99327.67;1785378;79;21031;-72
2021/03/06 05:26:15;;;;;;;197.85;77.70;;;;;;;-3.98;80.70;99327.50;1785346;80;21143;-72
2021/03/06 05:28:41;;;;;;;149.70;61.30;;;;;;;-4.09;81.23;99330.41;1785241;79;21146;-72
2021/03/06 05:31:07;;;;;;;107.10;47.50;;;;;;;-4.09;81.40;99330.41;1785323;80;21047;-72
2021/03/06 05:33:34;;;;;;;121.30;56.33;;;;;;;-4.01;81.40;99331.30;1785352;79;21121;-72
2021/03/06 05:36:00;;;;;;;113.92;49.67;;;;;;;-3.99;81.01;99333.78;1785360;80;21083;-72
2021/03/06 05:38:26;;;;;;;120.77;50.75;;;;;;;-3.89;81.04;99344.27;1785195;79;21197;-72
2021/03/06 05:40:52;;;;;;;109.78;51.80;;;;;;;-3.89;81.13;99340.30;1783854;80;21086;-72
2021/03/06 05:43:18;;;;;;;86.53;42.70;;;;;;;-3.84;81.62;99336.21;1780917;80;21531;-72
2021/03/06 05:45:46;;;;;;;103.10;48.87;;;;;;;-3.74;81.03;99344.05;1780791;79;21217;-72
2021/03/06 05:48:12;;;;;;;82.55;43.15;;;;;;;-3.77;80.76;99345.66;1780853;80;21074;-72
2021/03/06 05:50:38;;;;;;;83.95;42.83;;;;;;;-3.73;81.13;99347.86;1780818;79;21130;-72
2021/03/06 05:53:06;;;;;;;98.75;46.85;;;;;;;-3.70;81.14;99350.69;1731676;80;21134;-72
2021/03/06 05:55:32;;;;;;;87.80;46.83;;;;;;;-3.73;81.49;99362.43;1780821;79;21114;-72
2021/03/06 05:57:58;;;;;;;87.08;41.28;;;;;;;-3.65;81.43;99361.66;1780785;80;21166;-72
2021/03/06 06:00:24;;;;;;;79.50;36.53;;;;;;;-3.52;81.10;99366.52;1780851;79;21475;-72
2021/03/06 06:02:56;;;;;;;74.55;38.02;;;;;;;-3.45;81.13;99364.91;1732006;82;22288;-72
2021/03/06 06:05:24;;;;;;;84.13;39.80;;;;;;;-3.38;81.05;99369.09;1780727;79;21492;-72
2021/03/06 06:07:54;;;;;;;85.40;40.80;;;;;;;-3.33;80.94;99374.27;1780865;80;21079;-72
2021/03/06 06:10:20;;;;;;;75.80;37.10;;;;;;;-3.24;80.91;99375.97;1762259;81;21050;-72
2021/03/06 06:12:46;;;;;;;64.35;30.85;;;;;;;-3.10;81.20;99372.36;1780834;80;21403;-72
2021/03/06 06:15:14;;;;;;;70.20;34.35;;;;;;;-3.05;80.85;99370.08;1762221;81;21108;-72
2021/03/06 06:17:40;;;;;;;78.60;38.90;;;;;;;-2.98;80.33;99384.37;1756428;80;21071;-72
2021/03/06 06:20:08;;;;;;;73.55;38.28;;;;;;;-2.97;79.94;99384.20;1762227;81;21493;-72
2021/03/06 06:22:34;;;;;;;76.22;35.65;;;;;;;-2.94;79.86;99389.17;1749875;81;21114;-72
2021/03/06 06:25:00;;;;;;;72.45;34.65;;;;;;;-2.84;79.93;99390.37;1749876;82;21435;-72
2021/03/06 06:27:33;;;;;;;70.12;34.45;;;;;;;-2.84;79.90;99387.72;1780751;80;21245;-72
2021/03/06 06:30:01;;;;;;;68.37;34.92;;;;;;;-2.74;79.92;99400.84;1780822;79;21393;-71
2021/03/06 06:32:34;;;;;;;75.30;37.40;;;;;;;-2.60;80.01;99395.75;1780877;80;21043;-71
2021/03/06 06:35:06;;;;;;;76.25;38.35;;;;;;;-2.45;79.61;99399.94;1777222;79;21031;-71
2021/03/06 06:37:33;;;;;;;78.30;42.35;;;;;;;-2.40;79.55;99403.42;1762161;81;21136;-72
2021/03/06 06:40:00;;;;;;;79.67;38.53;;;;;;;-2.32;79.31;99400.28;1780792;79;21092;-72
2021/03/06 06:42:33;;;;;;;80.45;37.05;;;;;;;-2.27;79.17;99407.27;1735704;82;21119;-72
2021/03/06 06:44:59;;;;;;;79.47;42.35;;;;;;;-2.21;79.23;99403.14;1788810;78;21444;-71
2021/03/06 06:47:38;;;;;;;86.53;45.43;;;;;;;-2.22;79.08;99411.25;1788863;80;21487;-71
2021/03/06 06:50:06;;;;;;;81.20;43.65;;;;;;;-2.29;79.00;99411.09;1788940;78;21098;-71
2021/03/06 06:52:44;;;;;;;80.62;44.40;;;;;;;-2.20;79.32;99419.91;1788770;80;21219;-71
2021/03/06 06:55:12;;;;;;;66.02;34.13;;;;;;;-2.19;79.48;99417.58;1786883;78;21023;-72
2021/03/06 06:57:49;;;;;;;69.90;34.35;;;;;;;-2.03;79.33;99426.89;1788739;80;21095;-72
2021/03/06 07:00:16;;;;;;;71.53;34.60;;;;;;;-2.01;79.07;99423.56;1788875;78;21424;-71
2021/03/06 07:02:54;;;;;;;89.75;41.48;;;;;;;-2.01;79.14;99430.21;1788838;80;21476;-71
2021/03/06 07:05:35;;;;;;;67.15;32.35;;;;;;;-1.97;79.82;99428.87;1788911;78;21198;-71
2021/03/06 07:08:07;;;;;;;133.25;58.25;;;;;;;-1.86;79.94;99432.55;1788858;80;21106;-71
2021/03/06 07:10:35;;;;;;;195.40;82.42;;;;;;;-1.75;80.07;99432.20;1788800;78;21099;-71
2021/03/06 07:13:08;;;;;;;240.77;105.97;;;;;;;-1.57;80.01;99433.36;1789023;80;21114;-71
2021/03/06 07:15:34;;;;;;;104.90;57.35;;;;;;;-1.37;80.01;99430.34;1764515;80;21090;-72
2021/03/06 07:18:08;;;;;;;121.62;59.00;;;;;;;-1.24;79.28;99427.49;1788824;80;21202;-72
2021/03/06 07:20:38;;;;;;;95.12;48.75;;;;;;;-1.08;78.89;99429.80;1788732;78;21110;-71
2021/03/06 07:23:14;;;;;;;124.38;67.03;;;;;;;-0.96;77.55;99433.23;1788776;80;21086;-72
2021/03/06 07:25:40;;;;;;;103.62;56.28;;;;;;;-0.33;77.33;99438.95;1788773;78;21023;-71
2021/03/06 07:28:07;;;;;;;116.47;67.92;;;;;;;0.75;74.35;99437.94;1788822;80;21409;-71
2021/03/06 07:30:33;;;;;;;134.87;81.60;;;;;;;1.65;72.79;99435.05;1788859;78;21240;-71
2021/03/06 07:33:03;;;;;;;104.43;59.42;;;;;;;2.44;69.48;99435.02;1788699;80;21071;-71
2021/03/06 07:35:33;;;;;;;100.62;54.80;;;;;;;3.36;72.79;99438.84;1788049;78;21030;-71
2021/03/06 07:38:03;;;;;;;432.77;308.85;;;;;;;3.99;72.02;99434.63;1787978;80;21105;-71
2021/03/06 07:40:30;;;;;;;147.02;95.57;;;;;;;4.97;71.49;99438.41;1788779;78;21019;-72
2021/03/06 07:42:59;;;;;;;97.02;59.53;;;;;;;5.77;67.28;99434.44;1785592;80;21255;-71
2021/03/06 07:45:27;;;;;;;;;;;;;;;6.20;63.34;99435.98;1787727;79;21090;-72
2021/03/06 07:48:01;;;;;;;75.95;49.65;;;;;;;6.47;55.06;99430.41;1785175;80;20215;-72
2021/03/06 07:50:30;;;;;;;83.78;49.55;;;;;;;6.95;56.25;99427.94;1785046;79;21487;-72
2021/03/06 07:52:58;;;;;;;56.25;37.08;;;;;;;6.89;61.31;99432.86;1785291;80;21003;-72
2021/03/06 07:55:28;;;;;;;66.02;35.15;;;;;;;6.56;56.02;99431.79;1784210;79;22055;-72
2021/03/06 07:58:18;;;;;;;55.85;36.15;;;;;;;6.02;60.58;99433.20;1785141;80;21107;-70
2021/03/06 08:00:56;;;;;;;69.07;37.10;;;;;;;4.88;54.53;99433.78;1756365;80;21107;-71
2021/03/06 08:03:34;;;;;;;80.67;48.28;;;;;;;4.91;60.15;99436.55;1785130;80;21107;-71
2021/03/06 08:06:04;;;;;;;99.85;57.78;;;;;;;4.68;61.02;99435.63;1785214;80;21074;-71
2021/03/06 08:08:45;;;;;;;81.72;47.33;;;;;;;4.51;59.79;99438.73;1785106;79;21195;-71
2021/03/06 08:11:16;;;;;;;86.30;53.20;;;;;;;3.89;58.66;99439.05;1785053;80;21086;-71
2021/03/06 08:13:46;;;;;;;110.55;60.83;;;;;;;3.55;62.00;99445.31;1785147;79;21074;-72
2021/03/06 08:16:33;;;;;;;107.83;64.53;;;;;;;3.30;61.73;99447.67;1757351;80;22328;-72
2021/03/06 08:19:12;;;;;;;81.40;43.87;;;;;;;3.33;63.28;99451.28;1785154;79;21396;-71
2021/03/06 08:24:27;;;;;;;66.63;40.60;;;;;;;3.87;63.41;99447.81;1817886;76;27830;-71
2021/03/06 08:27:07;;;;;;;47.20;32.30;;;;;;;5.42;60.06;99442.02;1786012;80;20941;-71
2021/03/06 08:29:40;;;;;;;45.98;28.77;;;;;;;6.11;60.25;99447.23;1785888;79;21091;-71
2021/03/06 08:32:17;;;;;;;49.93;32.03;;;;;;;7.35;57.76;99449.94;1785002;80;20988;-71
2021/03/06 08:34:52;;;;;;;84.75;46.90;;;;;;;7.53;57.08;99449.64;1755407;80;21134;-71
2021/03/06 08:37:24;;;;;;;89.67;57.00;;;;;;;7.13;57.19;99449.23;1785876;80;21020;-72
2021/03/06 08:39:56;;;;;;;43.02;24.40;;;;;;;7.07;57.91;99454.45;1786009;79;20880;-71
2021/03/06 08:42:32;;;;;;;43.33;29.20;;;;;;;7.30;55.41;99447.08;1785931;80;21116;-71
2021/03/06 08:45:19;;;;;;;28.75;16.37;;;;;;;7.83;55.53;99449.67;1785905;79;21503;-70
2021/03/06 08:47:54;;;;;;;35.65;21.07;;;;;;;8.16;54.41;99446.01;1784814;80;20999;-72
2021/03/06 08:50:22;;;;;;;719.23;436.38;;;;;;;8.26;53.53;99450.03;1785855;79;21026;-71
2021/03/06 08:53:00;;;;;;;54.55;33.80;;;;;;;8.30;51.30;99452.59;1785861;80;21094;-71
2021/03/06 08:55:33;;;;;;;40.30;21.37;;;;;;;7.97;54.59;99452.52;1785828;79;21195;-72
2021/03/06 08:58:02;;;;;;;27.67;16.48;;;;;;;8.86;52.58;99448.08;1785897;80;21110;-71
2021/03/06 09:00:37;;;;;;;;;;;;;;;9.71;51.68;99446.19;1788138;79;21095;-72
2021/03/06 09:03:16;;;;;;;14.13;8.93;;;;;;;9.29;45.83;99449.08;1785832;80;20532;-71
2021/03/06 09:05:43;;;;;;;;;;;;;;;9.28;43.35;99451.48;1786871;79;21018;-71
2021/03/06 09:08:09;;;;;;;8.73;5.17;;;;;;;7.85;43.98;99459.71;1785942;80;21171;-71
2021/03/06 09:10:42;;;;;;;9.00;5.67;;;;;;;7.21;52.01;99458.38;1785771;79;21122;-71
2021/03/06 09:13:18;;;;;;;12.05;5.05;;;;;;;6.32;52.48;99458.98;1785809;80;21094;-71
2021/03/06 09:16:01;;;;;;;29.15;16.50;;;;;;;5.52;52.50;99453.67;1785835;79;21063;-72
2021/03/06 09:18:33;;;;;;;16.93;6.83;;;;;;;4.96;54.08;99462.28;1785899;79;21115;-71
2021/03/06 09:21:23;;;;;;;13.72;4.58;;;;;;;4.77;54.54;99461.24;1785867;80;21125;-72
2021/03/06 09:23:51;;;;;;;10.68;3.92;;;;;;;4.54;54.35;99464.36;1785621;79;22098;-71
2021/03/06 09:26:19;;;;;;;13.32;4.15;;;;;;;4.15;54.30;99463.77;1785951;79;21071;-71
2021/03/06 09:28:47;;;;;;;8.80;4.00;;;;;;;3.89;55.00;99464.01;1786104;79;21180;-71
2021/03/06 09:31:26;;;;;;;8.98;5.03;;;;;;;3.78;55.59;99472.64;1785829;80;21087;-71
2021/03/06 09:33:50;;;;;;;12.55;7.10;;;;;;;3.67;54.73;99468.69;1785490;79;21203;-72
2021/03/06 09:36:19;;;;;;;8.23;3.10;;;;;;;3.72;55.43;99468.07;1785218;80;21142;-72
2021/03/06 09:38:51;;;;;;;25.37;10.28;;;;;;;3.71;53.62;99466.42;1785423;79;21642;-72
2021/03/06 09:41:21;;;;;;;36.28;14.00;;;;;;;3.06;51.70;99463.69;1785268;79;21499;-71
2021/03/06 09:43:57;;;;;;;30.57;11.43;;;;;;;3.11;50.74;99466.63;1784445;79;21111;-71
2021/03/06 09:46:32;;;;;;;12.40;6.22;;;;;;;2.82;51.32;99468.50;1785268;80;21259;-72
2021/03/06 09:49:01;;;;;;;11.97;6.53;;;;;;;2.92;54.17;99470.00;1785154;79;21120;-71
2021/03/06 09:51:52;;;;;;;30.72;13.15;;;;;;;2.90;55.00;99474.19;1785372;80;21078;-71
2021/03/06 09:54:21;;;;;;;21.87;7.45;;;;;;;2.95;55.36;99471.77;1785206;79;21503;-71
2021/03/06 09:56:56;;;;;;;11.28;4.25;;;;;;;3.08;55.76;99469.19;1785409;80;21094;-71
2021/03/06 09:59:24;;;;;;;12.78;5.35;;;;;;;3.16;55.53;99469.52;1785236;79;21177;-71
2021/03/06 10:01:50;;;;;;;8.50;3.77;;;;;;;3.14;55.30;99469.41;1785171;80;21054;-71
2021/03/06 10:04:20;;;;;;;24.52;9.05;;;;;;;3.11;55.32;99467.96;1785223;79;21090;-71
2021/03/06 10:06:48;;;;;;;14.23;8.43;;;;;;;3.10;54.62;99465.80;1785322;79;21514;-71
2021/03/06 10:09:15;;;;;;;25.65;15.18;;;;;;;3.17;55.57;99467.70;1785343;79;21011;-71
2021/03/06 10:11:47;;;;;;;14.05;9.23;;;;;;;3.39;55.62;99471.42;1785240;79;22286;-71
2021/03/06 10:14:18;;;;;;;27.50;16.17;;;;;;;3.71;54.49;99474.98;1785120;79;21440;-71
2021/03/06 10:16:52;;;;;;;18.90;11.38;;;;;;;3.75;55.10;99480.23;1785232;80;21079;-71
2021/03/06 10:19:20;;;;;;;17.98;12.10;;;;;;;3.74;55.76;99478.08;1784567;79;21491;-71
2021/03/06 10:22:08;;;;;;;29.60;18.77;;;;;;;3.66;55.40;99475.05;1785503;80;21115;-71
2021/03/06 10:24:58;;;;;;;42.33;25.35;;;;;;;3.48;56.23;99474.76;1769971;78;21328;-72
2021/03/06 10:27:48;;;;;;;40.15;20.32;;;;;;;3.34;56.82;99482.44;1791118;79;21086;-71
2021/03/06 10:30:32;;;;;;;248.93;107.87;;;;;;;3.24;56.76;99482.77;1791035;78;21061;-70
2021/03/06 10:33:04;;;;;;;92.12;33.50;;;;;;;3.32;56.06;99487.14;1764989;80;21038;-71
2021/03/06 10:35:46;;;;;;;16.80;11.70;;;;;;;3.49;53.84;99487.13;1790886;78;21050;-71
2021/03/06 10:38:25;;;;;;;10.03;6.10;;;;;;;3.28;53.04;99488.06;1791046;80;21189;-71
2021/03/06 10:40:56;;;;;;;14.25;4.47;;;;;;;3.25;53.61;99481.77;1788053;80;21034;-71
2021/03/06 10:43:31;;;;;;;129.50;15.80;;;;;;;3.23;52.81;99486.47;1790970;80;21436;-70
2021/03/06 10:46:31;;;;;;;46.42;7.53;;;;;;;3.36;54.12;99487.91;1791112;80;21098;-71
2021/03/06 10:49:03;;;;;;;110.50;11.68;;;;;;;2.92;51.71;99482.05;1791130;78;21098;-71
2021/03/06 10:51:50;;;;;;;13.20;6.97;;;;;;;2.90;54.49;99478.20;1791180;79;22050;-72
2021/03/06 10:54:18;;;;;;;107.52;21.57;;;;;;;2.96;53.63;99474.75;1790920;78;21070;-71
2021/03/06 10:56:44;;;;;;;72.10;12.47;;;;;;;3.17;54.83;99475.22;1791039;80;21063;-71
2021/03/06 10:59:11;;;;;;;197.47;17.65;;;;;;;3.12;53.12;99473.63;1790957;78;21411;-71
2021/03/06 11:01:47;;;;;;;40.35;16.00;;;;;;;3.18;54.99;99466.16;1791070;80;20920;-71
2021/03/06 11:04:33;;;;;;;33.02;14.95;;;;;;;3.21;55.53;99468.95;1790944;78;21201;-71
2021/03/06 11:07:02;;;;;;;251.07;37.73;;;;;;;3.17;55.63;99464.51;1791021;80;21479;-71
2021/03/06 11:12:22;;;;;;;12.15;6.97;;;;;;;3.29;55.81;99454.05;1890268;76;22375;-70
2021/03/06 11:15:13;;;;;;;31.60;6.92;;;;;;;3.33;54.56;99460.17;1841403;77;21411;-71
2021/03/06 11:17:41;;;;;;;17.27;3.87;;;;;;;3.31;53.53;99455.50;1827516;78;22018;-71
2021/03/06 11:20:09;;;;;;;117.10;15.90;;;;;;;3.45;53.41;99448.37;1827216;77;20908;-71
2021/03/06 11:22:36;;;;;;;92.80;11.15;;;;;;;3.59;52.73;99454.59;1827396;78;21474;-71
2021/03/06 11:25:05;;;;;;;116.15;15.43;;;;;;;3.68;52.45;99451.57;1827363;77;21562;-71
2021/03/06 11:27:51;;;;;;;55.23;9.65;;;;;;;3.66;52.54;99448.75;1827347;78;20983;-71
2021/03/06 11:30:25;;;;;;;56.77;8.38;;;;;;;3.75;51.42;99440.84;1816503;78;22064;-71
2021/03/06 11:33:02;;;;;;;52.98;11.95;;;;;;;3.77;51.32;99433.45;1890256;76;22266;-70
2021/03/06 11:35:28;;;;;;;26.10;10.75;;;;;;;3.68;51.71;99434.14;1831941;77;20870;-70
2021/03/06 11:37:55;;;;;;;88.65;48.85;;;;;;;3.44;51.61;99427.96;1827368;78;21190;-71
2021/03/06 11:40:24;;;;;;;65.12;22.48;;;;;;;3.04;51.76;99433.09;1827352;77;21423;-71